createdAt,value
2022-10-25T00:05:27.764Z,12.93
2022-10-25T00:11:33.090Z,12.91
2022-10-25T00:17:34.977Z,12.87
2022-10-25T00:23:37.135Z,12.82
2022-10-25T00:29:39.193Z,12.80
2022-10-25T00:35:46.424Z,12.65
2022-10-25T00:41:48.759Z,12.60
2022-10-25T00:48:10.867Z,12.53
2022-10-25T00:54:20.461Z,12.44
2022-10-25T01:00:22.748Z,12.49
2022-10-25T01:06:41.230Z,12.47
2022-10-25T01:12:48.719Z,12.70
2022-10-25T01:19:40.720Z,12.77
2022-10-25T01:26:26.929Z,12.74
2022-10-25T01:32:59.844Z,12.84
2022-10-25T01:39:33.146Z,12.91
2022-10-25T01:46:24.475Z,12.91
2022-10-25T01:52:27.380Z,13.01
2022-10-25T01:59:00.410Z,13.03
2022-10-25T02:05:39.981Z,12.86
2022-10-25T02:11:42.131Z,12.87
2022-10-25T02:17:55.784Z,12.90
2022-10-25T02:23:59.962Z,12.93
2022-10-25T02:30:02.387Z,13.06
2022-10-25T02:36:12.564Z,13.07
2022-10-25T02:42:14.450Z,13.20
2022-10-25T02:48:16.356Z,13.31
2022-10-25T02:54:18.359Z,13.33
2022-10-25T03:00:20.341Z,13.54
2022-10-25T03:06:22.490Z,13.51
2022-10-25T03:12:24.417Z,13.31
2022-10-25T03:18:26.445Z,13.45
2022-10-25T03:24:28.369Z,13.47
2022-10-25T03:30:31.507Z,13.33
2022-10-25T03:36:33.460Z,13.10
2022-10-25T03:42:35.328Z,13.12
2022-10-25T03:48:37.447Z,13.11
2022-10-25T03:54:39.414Z,13.14
2022-10-25T04:00:41.458Z,13.14
2022-10-25T04:06:43.693Z,13.20
2022-10-25T04:12:46.952Z,13.42
2022-10-25T04:18:53.269Z,13.21
2022-10-25T04:24:55.270Z,13.26
2022-10-25T04:30:57.304Z,13.24
2022-10-25T04:36:59.210Z,13.37
2022-10-25T04:43:13.378Z,13.30
2022-10-25T04:49:16.144Z,13.34
2022-10-25T04:55:18.051Z,13.53
2022-10-25T05:01:20.156Z,13.46
2022-10-25T05:07:22.759Z,13.64
2022-10-25T05:13:24.769Z,13.51
2022-10-25T05:19:27.015Z,13.53
2022-10-25T05:25:28.957Z,13.58
2022-10-25T05:31:31.566Z,13.54
2022-10-25T05:37:34.231Z,13.56
2022-10-25T05:43:36.174Z,13.55
2022-10-25T05:49:40.387Z,13.73
2022-10-25T05:55:42.444Z,13.94
2022-10-25T06:01:46.793Z,13.56
2022-10-25T06:07:49.503Z,13.60
2022-10-25T06:13:53.156Z,13.59
2022-10-25T06:19:59.523Z,13.78
2022-10-25T06:26:04.824Z,13.69
2022-10-25T06:32:06.759Z,13.94
2022-10-25T06:38:16.319Z,13.77
2022-10-25T06:44:18.698Z,13.96
2022-10-25T06:50:20.608Z,14.16
2022-10-25T06:56:23.114Z,13.98
2022-10-25T07:02:25.254Z,14.14
2022-10-25T07:08:27.352Z,14.23
2022-10-25T07:14:29.282Z,13.99
2022-10-25T07:20:31.502Z,14.08
2022-10-25T07:26:35.181Z,14.04
2022-10-25T07:32:52.801Z,14.02
2022-10-25T07:38:57.689Z,13.91
2022-10-25T07:51:37.560Z,13.67
2022-10-25T07:57:39.724Z,13.86
2022-10-25T08:03:41.679Z,13.94
2022-10-25T08:09:44.144Z,14.07
2022-10-25T08:15:55.036Z,14.10
2022-10-25T08:21:57.070Z,13.91
2022-10-25T08:27:59.756Z,13.90
2022-10-25T08:34:02.337Z,14.00
2022-10-25T08:47:01.754Z,14.15
2022-10-25T08:53:12.496Z,14.20
2022-10-25T08:59:21.086Z,14.50
2022-10-25T09:05:51.213Z,14.88
2022-10-25T09:12:29.049Z,15.18
2022-10-25T09:18:48.521Z,15.46
2022-10-25T09:25:09.206Z,15.80
2022-10-25T09:31:16.734Z,15.83
2022-10-25T09:37:27.075Z,15.76
2022-10-25T09:43:56.705Z,16.00
2022-10-25T09:50:29.379Z,16.21
2022-10-25T09:56:31.309Z,16.10
2022-10-25T10:02:33.590Z,15.96
2022-10-25T10:08:37.559Z,16.10
2022-10-25T10:14:55.392Z,15.68
2022-10-25T10:21:12.140Z,15.69
2022-10-25T10:27:27.844Z,15.55
2022-10-25T10:33:33.101Z,16.00
2022-10-25T10:39:46.014Z,16.04
2022-10-25T10:45:52.548Z,15.76
2022-10-25T10:51:54.505Z,15.96
2022-10-25T10:58:26.995Z,16.10
2022-10-25T11:04:29.523Z,16.23
2022-10-25T11:10:40.034Z,16.25
2022-10-25T11:17:19.512Z,16.95
2022-10-25T11:24:06.855Z,17.34
2022-10-25T11:30:08.817Z,18.09
2022-10-25T11:36:45.330Z,18.16
2022-10-25T11:50:57.002Z,18.33
2022-10-25T11:57:43.471Z,18.50
2022-10-25T12:03:55.164Z,18.50
2022-10-25T12:10:39.861Z,17.89
2022-10-25T12:16:43.362Z,17.47
2022-10-25T12:22:50.081Z,17.38
2022-10-25T12:28:52.822Z,17.42
2022-10-25T12:34:56.437Z,17.22
2022-10-25T12:41:06.986Z,17.34
2022-10-25T12:47:35.475Z,17.25
2022-10-25T12:54:35.945Z,17.38
2022-10-25T13:01:07.539Z,17.65
2022-10-25T13:07:11.892Z,17.59
2022-10-25T13:13:28.927Z,17.49
2022-10-25T13:25:54.325Z,17.85
2022-10-25T13:32:10.360Z,17.93
2022-10-25T13:45:56.358Z,17.66
2022-10-25T13:52:07.456Z,17.42
2022-10-25T13:58:31.272Z,17.10
2022-10-25T14:04:38.752Z,17.09
2022-10-25T14:10:41.220Z,17.17
2022-10-25T14:16:58.923Z,17.32
2022-10-25T14:23:15.500Z,17.14
2022-10-25T14:29:46.360Z,16.89
2022-10-25T14:36:29.935Z,16.91
2022-10-25T14:43:30.780Z,16.57
2022-10-25T14:49:34.433Z,16.49
2022-10-25T14:55:36.714Z,16.58
2022-10-25T15:01:42.174Z,16.60
2022-10-25T15:07:47.071Z,16.89
2022-10-25T15:13:52.054Z,17.01
2022-10-25T15:20:16.266Z,16.93
2022-10-25T15:26:28.068Z,16.59
2022-10-25T15:32:30.178Z,16.42
2022-10-25T15:39:05.866Z,16.16
2022-10-25T15:44:58.830Z,16.01
2022-10-25T15:51:00.777Z,15.85
2022-10-25T15:57:03.565Z,15.47
2022-10-25T16:03:05.956Z,15.01
2022-10-25T16:09:08.016Z,14.65
2022-10-25T16:15:15.581Z,14.27
2022-10-25T16:21:19.669Z,14.23
2022-10-25T16:27:21.600Z,14.08
2022-10-25T16:33:23.470Z,13.83
2022-10-25T16:39:25.375Z,13.52
2022-10-25T16:45:42.428Z,13.32
2022-10-25T16:51:44.406Z,13.42
2022-10-25T17:03:54.632Z,13.41
2022-10-25T17:09:57.072Z,13.34
2022-10-25T17:15:58.962Z,13.49
2022-10-25T17:22:00.907Z,13.32
2022-10-25T17:28:03.156Z,13.19
2022-10-25T17:34:05.219Z,13.00
2022-10-25T17:40:07.934Z,12.78
2022-10-25T17:52:54.846Z,12.62
2022-10-25T17:58:58.466Z,12.70
2022-10-25T18:05:19.450Z,12.42
2022-10-25T18:11:26.024Z,12.33
2022-10-25T18:17:28.098Z,12.32
2022-10-25T18:23:49.970Z,12.11
2022-10-25T18:36:19.043Z,12.20
2022-10-25T18:42:21.439Z,12.23
2022-10-25T18:48:23.451Z,12.08
2022-10-25T18:54:25.460Z,12.03
2022-10-25T19:00:31.184Z,12.01
2022-10-25T19:06:33.883Z,12.14
2022-10-25T19:12:35.914Z,12.07
2022-10-25T19:18:38.166Z,12.04
2022-10-25T19:24:40.084Z,11.98
2022-10-25T19:30:42.153Z,11.88
2022-10-25T19:36:44.296Z,11.80
2022-10-25T19:42:46.716Z,11.73
2022-10-25T19:55:07.090Z,11.68
2022-10-25T20:01:15.885Z,11.53
2022-10-25T20:07:18.663Z,11.48
2022-10-25T20:13:20.997Z,11.42
2022-10-25T20:19:22.949Z,11.37
2022-10-25T20:25:24.865Z,11.29
2022-10-25T20:31:30.759Z,11.34
2022-10-25T20:37:32.645Z,11.28
2022-10-25T20:43:35.067Z,11.27
2022-10-25T20:49:36.986Z,11.26
2022-10-25T20:55:39.268Z,11.18
2022-10-25T21:01:41.518Z,11.09
2022-10-25T21:07:43.541Z,10.88
2022-10-25T21:13:46.910Z,10.98
2022-10-25T21:20:11.452Z,10.78
2022-10-25T21:26:13.627Z,10.81
2022-10-25T21:32:15.584Z,10.77
2022-10-25T21:38:17.866Z,10.71
2022-10-25T21:44:20.304Z,10.67
2022-10-25T21:50:22.153Z,10.63
2022-10-25T21:56:30.692Z,10.59
2022-10-25T22:02:33.610Z,10.55
2022-10-25T22:08:36.027Z,10.51
2022-10-25T22:14:37.970Z,10.39
2022-10-25T22:20:39.836Z,10.47
2022-10-25T22:26:44.736Z,10.46
2022-10-25T22:32:47.100Z,10.36
2022-10-25T22:38:49.300Z,10.25
2022-10-25T22:44:51.145Z,10.24
2022-10-25T22:50:54.546Z,9.99
2022-10-25T22:56:56.394Z,9.98
2022-10-25T23:02:58.256Z,9.81
2022-10-25T23:09:04.273Z,9.77
2022-10-25T23:15:07.417Z,9.74
2022-10-25T23:21:18.006Z,9.78
2022-10-25T23:27:19.857Z,9.70
2022-10-25T23:33:21.714Z,9.80
2022-10-25T23:39:23.569Z,9.51
2022-10-25T23:45:27.050Z,9.86
2022-10-25T23:51:28.907Z,9.74
2022-10-25T23:57:30.772Z,9.72
